Airfield :
LOGIN :

Register | Disclaimer

   EN    FR    IT 

 










Legend :    VFR   Marginal VFR   IFR   Intensive IFR   Very Intensive IFR
Visi :
Ceiling :
>= 8 km
>= 3000ft
5 to 8 km
1000 to 3000 ft
1500m to 5 km
500 to 1000 ft
800 to 1500m
200 to 500 ft
< 800m
< 200 ft
Symbols :   Thunderstorms  Fog  Heavy snow  Heavy precipitations  Wind > 20 kt
SIGMETs :     Misc.  Thunderstorms  Icing  Turbulence  Mountain Waves  Volcanic Ashes






- Airport Elevation : 15 ft
- IATA code : FCO


LIRF - Roma Leonardo da Vinci Fiumicino

CURRENT METAR :
  • 280520Z 35006KT CAVOK 11/09 Q1008 TEMPO 4000 SHRA

EXPIRED METARs :
  • 280450Z 02004KT 350V060 CAVOK 11/10 Q1008 TEMPO 4000 SHRA
  • 280420Z 06004KT CAVOK 11/10 Q1008 TEMPO 4000 SHRA
  • 280350Z 06006KT CAVOK 11/10 Q1007 TEMPO 4000 TSRA
  • 280320Z 05006KT 9999 -SHRA SCT040 11/10 Q1007 TEMPO 4000 TSRA
  • 280250Z 05003KT 9999 SCT035 11/10 Q1008 TEMPO 4000 SHRA
  • 280220Z 05006KT CAVOK 11/10 Q1008 TEMPO 4000 SHRA
  • 280150Z 02007KT 9999 -SHRA SCT035 11/10 Q1008 NOSIG
  • 280120Z 08008KT 9999 -RA BKN055 11/10 Q1009 NOSIG
  • 280050Z 07008KT CAVOK 11/10 Q1009 NOSIG

TAF TAF LIRF
Valid from the 28 at 06:00 until the 29 at 12:00 UTC


280500Z 2806/2912 06012KT 9999 SCT030
TEMPO 2806/2808 35010KT TSRA
TEMPO 2813/2818 SHRA
TEMPO 2900/2912 4000 TSRA
BECMG 2911/2912 27007KT



MET'MAP, your aeronautical weather chart ! - Copyright ORBIFLY December 2007 - Disclaimer

ORBIFLY MET'MAP TEAM :

Programming & Development : Alexandra Zaïnal
Original concept : Baudouin d'Aumeries
Technical & hardware support : Manuel Goepfert
Assistance : Marc-Olivier Méhu




SOURCES & CREDITS :

   NOAA